Meteo Giornale » Osservazioni meteo Turchia » Mus Tur-Afb
ore: 21:03 - Osservazioni Meteo Mus Tur-Afb
Lat. 38° 45' N Lon. 41° 40' E Alt. 1266 metri s.l.m.
22 °C
Temporale
Temp. 24 Ore
13 °C
29 °C
Sud/Sud-Ovest
20.3 Km/h
Dew point 10 °C
Umidità 46 %
Visibilità 10 Km
Il sole sorge alle ore 05:43
Il sole tramonta alle ore 18:42
| Data e Ora | Cielo e Fenomeni | T °C | DP °C | Um. % | Pres. hPa | Vis. km | Vento km/h | |
|---|---|---|---|---|---|---|---|---|
| Ieri h: 21:03 | Temporale | 22 | 10 | 46 | 1018 | 10 | S/SO 20.3 | |
| Ieri h: 20:50 | Temporale | 22 | 10 | 46 | 1018 | 10 | NE 14.8 | |
| Ieri h: 19:50 | Temporale | 22 | 10 | 46 | 1016 | 10 | E 7.4 | |
| Ieri h: 19:19 | Temporale | 23 | 10 | 43 | 1016 | 10 | S/SE 9.3 | |
| Ieri h: 18:50 | Molto Nuvoloso | 23 | 10 | 43 | 1015 | 10 | S 9.3 | |
| Ieri h: 17:50 | Nuvoloso | 27 | 9 | 32 | 1015 | 10 | S/SE 13 | |
| Ieri h: 17:19 | Nuvoloso | 28 | 9 | 30 | 1015 | 10 | E 13 | |
| Ieri h: 16:50 | Molto Nuvoloso | 27 | 9 | 32 | 1015 | 10 | E 18.5 | |
| Ieri h: 16:20 | Molto Nuvoloso | 27 | 9 | 32 | 1015 | 10 | E/NE 27.8 | |
| Ieri h: 16:09 | Molto Nuvoloso | 28 | 9 | 30 | 1015 | 10 | E/NE 20.3 | |
| Ieri h: 15:50 | Molto Nuvoloso | 29 | 9 | 28 | 1015 | 10 | O 7.4 | |
| Ieri h: 15:03 | Nuvoloso | 29 | 10 | 30 | 1015 | 10 | O 20.3 | |
| Ieri h: 14:50 | Nuvoloso | 29 | 9 | 28 | 1015 | 10 | N 13 | |
| Ieri h: 13:50 | Nuvoloso | 29 | 9 | 28 | 1016 | 10 | N 5.5 | |
| Ieri h: 12:50 | Nuvoloso | 28 | 10 | 32 | 1016 | 10 | O/SO 13 | |
| Ieri h: 12:31 | Temporale | 27 | 10 | 34 | 1016 | 10 | O 11.1 | |
| Ieri h: 12:15 | Nuvoloso | 27 | 10 | 34 | 1016 | 10 | N 9.3 | |
| Ieri h: 11:50 | Nuvoloso | 26 | 10 | 36 | 1016 | 10 | N 7.4 | |
| Ieri h: 10:50 | Poco Nuvoloso | 25 | 10 | 38 | 1017 | 10 | N 7.4 | |
| Ieri h: 09:50 | Poco Nuvoloso | 24 | 10 | 41 | 1017 | 10 | N 3.7 | |
| Ieri h: 08:50 | Poco Nuvoloso | 22 | 10 | 46 | 1017 | 10 | N 3.7 | |
| Ieri h: 07:50 | Poco Nuvoloso | 19 | 10 | 55 | 1017 | 10 | N 1.8 | |
| Ieri h: 06:50 | Nuvoloso | 16 | 9 | 63 | 1017 | 10 | N 3.7 | |
| Ieri h: 05:50 | Nuvoloso | 13 | 8 | 71 | 1016 | 10 | E 7.4 | |
| Ieri h: 04:50 | Nuvoloso | 14 | 9 | 71 | 1016 | 10 | N 0 | |
| Ieri h: 04:21 | Nuvoloso | 15 | 8 | 62 | 1016 | 10 | N 0 | |



